sensor_id;sensor_type;location;lat;lon;timestamp;P1;durP1;ratioP1;P2;durP2;ratioP2
17595;SDS011;8916;47.086;15.920;2023-03-01T00:00:23;58.72;;;25.58;;
17595;SDS011;8916;47.086;15.920;2023-03-01T00:02:53;53.05;;;25.25;;
17595;SDS011;8916;47.086;15.920;2023-03-01T00:05:23;61.58;;;25.85;;
17595;SDS011;8916;47.086;15.920;2023-03-01T00:07:52;57.13;;;26.73;;
17595;SDS011;8916;47.086;15.920;2023-03-01T00:10:21;54.13;;;25.17;;
17595;SDS011;8916;47.086;15.920;2023-03-01T00:12:51;55.67;;;25.10;;
17595;SDS011;8916;47.086;15.920;2023-03-01T00:15:20;54.70;;;25.50;;
17595;SDS011;8916;47.086;15.920;2023-03-01T00:17:49;54.03;;;25.08;;
17595;SDS011;8916;47.086;15.920;2023-03-01T00:20:19;56.50;;;26.00;;
17595;SDS011;8916;47.086;15.920;2023-03-01T00:22:48;52.60;;;25.42;;
17595;SDS011;8916;47.086;15.920;2023-03-01T00:25:19;55.53;;;25.02;;
17595;SDS011;8916;47.086;15.920;2023-03-01T00:27:48;54.45;;;24.08;;
17595;SDS011;8916;47.086;15.920;2023-03-01T00:30:19;51.97;;;24.88;;
17595;SDS011;8916;47.086;15.920;2023-03-01T00:32:48;54.58;;;24.98;;
17595;SDS011;8916;47.086;15.920;2023-03-01T00:35:20;57.10;;;25.30;;
17595;SDS011;8916;47.086;15.920;2023-03-01T00:37:50;54.83;;;25.83;;
17595;SDS011;8916;47.086;15.920;2023-03-01T00:40:25;55.38;;;25.35;;
17595;SDS011;8916;47.086;15.920;2023-03-01T00:42:54;60.13;;;26.42;;
17595;SDS011;8916;47.086;15.920;2023-03-01T00:45:23;56.30;;;24.83;;
17595;SDS011;8916;47.086;15.920;2023-03-01T00:47:53;54.28;;;25.15;;
17595;SDS011;8916;47.086;15.920;2023-03-01T00:50:24;55.83;;;25.65;;
17595;SDS011;8916;47.086;15.920;2023-03-01T00:52:53;55.17;;;25.50;;
17595;SDS011;8916;47.086;15.920;2023-03-01T00:55:23;54.00;;;24.25;;
17595;SDS011;8916;47.086;15.920;2023-03-01T00:57:53;54.28;;;25.23;;
17595;SDS011;8916;47.086;15.920;2023-03-01T01:00:22;55.95;;;24.75;;
17595;SDS011;8916;47.086;15.920;2023-03-01T01:02:54;53.33;;;23.70;;
17595;SDS011;8916;47.086;15.920;2023-03-01T01:05:27;52.58;;;23.80;;
17595;SDS011;8916;47.086;15.920;2023-03-01T01:07:56;52.67;;;23.40;;
17595;SDS011;8916;47.086;15.920;2023-03-01T01:10:25;53.00;;;25.85;;
17595;SDS011;8916;47.086;15.920;2023-03-01T01:12:54;48.42;;;23.55;;
17595;SDS011;8916;47.086;15.920;2023-03-01T01:15:23;59.85;;;25.23;;
17595;SDS011;8916;47.086;15.920;2023-03-01T01:17:52;55.17;;;26.65;;
17595;SDS011;8916;47.086;15.920;2023-03-01T01:20:21;50.88;;;25.15;;
17595;SDS011;8916;47.086;15.920;2023-03-01T01:22:52;54.20;;;24.30;;
17595;SDS011;8916;47.086;15.920;2023-03-01T01:25:21;51.38;;;24.20;;
17595;SDS011;8916;47.086;15.920;2023-03-01T01:27:52;51.20;;;24.08;;
17595;SDS011;8916;47.086;15.920;2023-03-01T01:30:21;58.75;;;23.40;;
17595;SDS011;8916;47.086;15.920;2023-03-01T01:32:51;49.78;;;23.70;;
17595;SDS011;8916;47.086;15.920;2023-03-01T01:35:20;56.85;;;25.33;;
17595;SDS011;8916;47.086;15.920;2023-03-01T01:37:49;54.75;;;24.60;;
17595;SDS011;8916;47.086;15.920;2023-03-01T01:40:19;53.42;;;24.85;;
17595;SDS011;8916;47.086;15.920;2023-03-01T01:42:48;55.83;;;26.15;;
17595;SDS011;8916;47.086;15.920;2023-03-01T01:45:32;54.85;;;26.02;;
17595;SDS011;8916;47.086;15.920;2023-03-01T01:48:04;53.13;;;24.60;;
17595;SDS011;8916;47.086;15.920;2023-03-01T01:50:40;52.67;;;25.65;;
17595;SDS011;8916;47.086;15.920;2023-03-01T01:53:12;51.20;;;25.08;;
17595;SDS011;8916;47.086;15.920;2023-03-01T01:55:48;52.22;;;25.17;;
17595;SDS011;8916;47.086;15.920;2023-03-01T01:58:25;53.45;;;25.50;;
17595;SDS011;8916;47.086;15.920;2023-03-01T02:00:57;56.50;;;26.67;;
17595;SDS011;8916;47.086;15.920;2023-03-01T02:03:29;61.80;;;26.42;;
17595;SDS011;8916;47.086;15.920;2023-03-01T02:06:06;58.90;;;26.95;;
17595;SDS011;8916;47.086;15.920;2023-03-01T02:08:41;54.25;;;26.08;;
17595;SDS011;8916;47.086;15.920;2023-03-01T02:11:13;55.40;;;24.15;;
17595;SDS011;8916;47.086;15.920;2023-03-01T02:13:43;54.33;;;24.88;;
17595;SDS011;8916;47.086;15.920;2023-03-01T02:16:15;56.33;;;25.38;;
17595;SDS011;8916;47.086;15.920;2023-03-01T02:18:45;55.00;;;25.88;;
17595;SDS011;8916;47.086;15.920;2023-03-01T02:21:29;53.13;;;24.77;;
17595;SDS011;8916;47.086;15.920;2023-03-01T02:24:12;51.88;;;24.52;;
17595;SDS011;8916;47.086;15.920;2023-03-01T02:27:02;51.63;;;23.08;;
17595;SDS011;8916;47.086;15.920;2023-03-01T02:29:32;52.53;;;23.30;;
17595;SDS011;8916;47.086;15.920;2023-03-01T02:32:02;48.22;;;24.13;;
17595;SDS011;8916;47.086;15.920;2023-03-01T02:34:32;48.95;;;24.05;;
17595;SDS011;8916;47.086;15.920;2023-03-01T02:37:02;52.58;;;23.15;;
17595;SDS011;8916;47.086;15.920;2023-03-01T02:39:40;54.20;;;25.40;;
17595;SDS011;8916;47.086;15.920;2023-03-01T02:42:13;50.75;;;24.27;;
17595;SDS011;8916;47.086;15.920;2023-03-01T02:45:00;51.70;;;23.52;;
17595;SDS011;8916;47.086;15.920;2023-03-01T02:47:29;49.30;;;24.25;;
17595;SDS011;8916;47.086;15.920;2023-03-01T02:49:58;52.90;;;25.38;;
17595;SDS011;8916;47.086;15.920;2023-03-01T02:52:30;53.58;;;25.40;;
17595;SDS011;8916;47.086;15.920;2023-03-01T02:55:12;57.08;;;24.25;;
17595;SDS011;8916;47.086;15.920;2023-03-01T02:57:45;53.83;;;24.10;;
17595;SDS011;8916;47.086;15.920;2023-03-01T03:00:20;50.35;;;24.23;;
17595;SDS011;8916;47.086;15.920;2023-03-01T03:02:52;53.65;;;24.38;;
17595;SDS011;8916;47.086;15.920;2023-03-01T03:05:25;51.08;;;23.85;;
17595;SDS011;8916;47.086;15.920;2023-03-01T03:07:58;53.83;;;23.95;;
17595;SDS011;8916;47.086;15.920;2023-03-01T03:10:33;54.45;;;24.25;;
17595;SDS011;8916;47.086;15.920;2023-03-01T03:13:08;53.75;;;23.60;;
17595;SDS011;8916;47.086;15.920;2023-03-01T03:15:41;56.97;;;25.27;;
17595;SDS011;8916;47.086;15.920;2023-03-01T03:18:11;52.22;;;23.92;;
17595;SDS011;8916;47.086;15.920;2023-03-01T03:20:43;53.17;;;25.05;;
17595;SDS011;8916;47.086;15.920;2023-03-01T03:23:12;52.08;;;24.90;;
17595;SDS011;8916;47.086;15.920;2023-03-01T03:25:42;58.40;;;24.40;;
17595;SDS011;8916;47.086;15.920;2023-03-01T03:28:11;53.28;;;24.10;;
17595;SDS011;8916;47.086;15.920;2023-03-01T03:30:41;52.63;;;25.63;;
17595;SDS011;8916;47.086;15.920;2023-03-01T03:33:11;49.88;;;25.02;;
17595;SDS011;8916;47.086;15.920;2023-03-01T03:35:41;55.72;;;25.10;;
17595;SDS011;8916;47.086;15.920;2023-03-01T03:38:15;50.85;;;24.67;;
17595;SDS011;8916;47.086;15.920;2023-03-01T03:40:50;50.97;;;24.35;;
17595;SDS011;8916;47.086;15.920;2023-03-01T03:43:28;51.72;;;23.58;;
17595;SDS011;8916;47.086;15.920;2023-03-01T03:46:00;53.25;;;23.02;;
17595;SDS011;8916;47.086;15.920;2023-03-01T03:48:33;49.08;;;23.58;;
17595;SDS011;8916;47.086;15.920;2023-03-01T03:51:03;49.55;;;22.48;;
17595;SDS011;8916;47.086;15.920;2023-03-01T03:53:33;48.10;;;22.42;;
17595;SDS011;8916;47.086;15.920;2023-03-01T03:56:02;53.13;;;23.45;;
17595;SDS011;8916;47.086;15.920;2023-03-01T03:58:33;45.97;;;21.27;;
17595;SDS011;8916;47.086;15.920;2023-03-01T04:01:03;47.33;;;21.77;;
17595;SDS011;8916;47.086;15.920;2023-03-01T04:03:33;47.03;;;22.25;;
17595;SDS011;8916;47.086;15.920;2023-03-01T04:06:03;46.63;;;22.08;;
17595;SDS011;8916;47.086;15.920;2023-03-01T04:08:33;45.15;;;22.48;;
17595;SDS011;8916;47.086;15.920;2023-03-01T04:11:03;49.40;;;22.48;;
17595;SDS011;8916;47.086;15.920;2023-03-01T04:13:47;49.63;;;22.10;;
17595;SDS011;8916;47.086;15.920;2023-03-01T04:16:18;50.47;;;23.70;;
17595;SDS011;8916;47.086;15.920;2023-03-01T04:18:47;48.70;;;22.25;;
17595;SDS011;8916;47.086;15.920;2023-03-01T04:21:16;44.80;;;21.42;;
17595;SDS011;8916;47.086;15.920;2023-03-01T04:23:47;42.67;;;21.38;;
17595;SDS011;8916;47.086;15.920;2023-03-01T04:26:19;51.65;;;22.52;;
17595;SDS011;8916;47.086;15.920;2023-03-01T04:28:49;49.15;;;23.27;;
17595;SDS011;8916;47.086;15.920;2023-03-01T04:31:19;47.55;;;22.63;;
17595;SDS011;8916;47.086;15.920;2023-03-01T04:33:49;47.03;;;22.73;;
17595;SDS011;8916;47.086;15.920;2023-03-01T04:36:21;47.60;;;22.30;;
17595;SDS011;8916;47.086;15.920;2023-03-01T04:38:53;46.78;;;22.92;;
17595;SDS011;8916;47.086;15.920;2023-03-01T04:41:23;49.67;;;22.67;;
17595;SDS011;8916;47.086;15.920;2023-03-01T04:43:53;46.00;;;21.75;;
17595;SDS011;8916;47.086;15.920;2023-03-01T04:46:23;43.60;;;21.75;;
17595;SDS011;8916;47.086;15.920;2023-03-01T04:48:52;48.17;;;22.77;;
17595;SDS011;8916;47.086;15.920;2023-03-01T04:51:22;45.72;;;22.52;;
17595;SDS011;8916;47.086;15.920;2023-03-01T04:53:51;45.53;;;22.13;;
17595;SDS011;8916;47.086;15.920;2023-03-01T04:56:20;48.15;;;22.65;;
17595;SDS011;8916;47.086;15.920;2023-03-01T04:58:52;50.20;;;23.08;;
17595;SDS011;8916;47.086;15.920;2023-03-01T05:01:23;49.40;;;23.15;;
17595;SDS011;8916;47.086;15.920;2023-03-01T05:03:52;46.30;;;23.15;;
17595;SDS011;8916;47.086;15.920;2023-03-01T05:06:21;48.28;;;24.33;;
17595;SDS011;8916;47.086;15.920;2023-03-01T05:08:51;45.83;;;22.00;;
17595;SDS011;8916;47.086;15.920;2023-03-01T05:11:20;47.10;;;23.63;;
17595;SDS011;8916;47.086;15.920;2023-03-01T05:13:49;50.60;;;22.40;;
17595;SDS011;8916;47.086;15.920;2023-03-01T05:16:26;50.42;;;23.73;;
17595;SDS011;8916;47.086;15.920;2023-03-01T05:19:01;47.72;;;22.70;;
17595;SDS011;8916;47.086;15.920;2023-03-01T05:21:39;49.13;;;22.92;;
17595;SDS011;8916;47.086;15.920;2023-03-01T05:24:26;49.10;;;22.53;;
17595;SDS011;8916;47.086;15.920;2023-03-01T05:26:56;50.25;;;22.95;;
17595;SDS011;8916;47.086;15.920;2023-03-01T05:29:25;57.13;;;22.88;;
17595;SDS011;8916;47.086;15.920;2023-03-01T05:31:59;51.22;;;24.58;;
17595;SDS011;8916;47.086;15.920;2023-03-01T05:34:30;51.38;;;23.42;;
17595;SDS011;8916;47.086;15.920;2023-03-01T05:37:02;50.90;;;24.25;;
17595;SDS011;8916;47.086;15.920;2023-03-01T05:39:35;53.58;;;24.55;;
17595;SDS011;8916;47.086;15.920;2023-03-01T05:42:05;53.45;;;24.77;;
17595;SDS011;8916;47.086;15.920;2023-03-01T05:44:35;53.95;;;24.35;;
17595;SDS011;8916;47.086;15.920;2023-03-01T05:47:06;52.45;;;24.13;;
17595;SDS011;8916;47.086;15.920;2023-03-01T05:49:36;49.83;;;23.67;;
17595;SDS011;8916;47.086;15.920;2023-03-01T05:52:06;50.63;;;23.75;;
17595;SDS011;8916;47.086;15.920;2023-03-01T05:54:36;52.15;;;24.35;;
17595;SDS011;8916;47.086;15.920;2023-03-01T05:57:06;48.05;;;23.48;;
17595;SDS011;8916;47.086;15.920;2023-03-01T05:59:35;52.53;;;22.85;;
17595;SDS011;8916;47.086;15.920;2023-03-01T06:02:04;49.85;;;23.38;;
17595;SDS011;8916;47.086;15.920;2023-03-01T06:04:34;49.15;;;22.77;;
17595;SDS011;8916;47.086;15.920;2023-03-01T06:07:03;52.58;;;23.77;;
17595;SDS011;8916;47.086;15.920;2023-03-01T06:09:32;50.80;;;22.27;;
17595;SDS011;8916;47.086;15.920;2023-03-01T06:12:01;47.55;;;22.70;;
17595;SDS011;8916;47.086;15.920;2023-03-01T06:14:32;48.17;;;22.75;;
17595;SDS011;8916;47.086;15.920;2023-03-01T06:17:01;45.42;;;23.30;;
17595;SDS011;8916;47.086;15.920;2023-03-01T06:19:32;49.88;;;22.33;;
17595;SDS011;8916;47.086;15.920;2023-03-01T06:22:05;45.53;;;22.02;;
17595;SDS011;8916;47.086;15.920;2023-03-01T06:24:38;46.05;;;21.77;;
17595;SDS011;8916;47.086;15.920;2023-03-01T06:27:07;49.45;;;24.65;;
17595;SDS011;8916;47.086;15.920;2023-03-01T06:29:36;47.05;;;22.50;;
17595;SDS011;8916;47.086;15.920;2023-03-01T06:32:08;51.00;;;22.90;;
17595;SDS011;8916;47.086;15.920;2023-03-01T06:34:38;48.58;;;22.60;;
17595;SDS011;8916;47.086;15.920;2023-03-01T06:37:07;47.92;;;22.98;;
17595;SDS011;8916;47.086;15.920;2023-03-01T06:39:37;53.70;;;24.45;;
17595;SDS011;8916;47.086;15.920;2023-03-01T06:42:07;45.40;;;23.13;;
17595;SDS011;8916;47.086;15.920;2023-03-01T06:44:37;50.50;;;23.65;;
17595;SDS011;8916;47.086;15.920;2023-03-01T06:47:06;52.00;;;22.63;;
17595;SDS011;8916;47.086;15.920;2023-03-01T06:49:35;45.38;;;23.20;;
17595;SDS011;8916;47.086;15.920;2023-03-01T06:52:06;47.38;;;22.77;;
17595;SDS011;8916;47.086;15.920;2023-03-01T06:54:35;40.38;;;20.90;;
17595;SDS011;8916;47.086;15.920;2023-03-01T06:57:04;45.60;;;21.45;;
17595;SDS011;8916;47.086;15.920;2023-03-01T06:59:33;48.55;;;21.77;;
17595;SDS011;8916;47.086;15.920;2023-03-01T07:02:02;49.42;;;22.55;;
17595;SDS011;8916;47.086;15.920;2023-03-01T07:04:31;43.75;;;21.25;;
17595;SDS011;8916;47.086;15.920;2023-03-01T07:07:01;48.70;;;22.08;;
17595;SDS011;8916;47.086;15.920;2023-03-01T07:09:31;42.72;;;21.58;;
17595;SDS011;8916;47.086;15.920;2023-03-01T07:12:01;50.70;;;23.52;;
17595;SDS011;8916;47.086;15.920;2023-03-01T07:14:30;40.15;;;20.08;;
17595;SDS011;8916;47.086;15.920;2023-03-01T07:16:59;44.22;;;22.52;;
17595;SDS011;8916;47.086;15.920;2023-03-01T07:19:28;43.70;;;22.55;;
17595;SDS011;8916;47.086;15.920;2023-03-01T07:21:57;51.33;;;22.73;;
17595;SDS011;8916;47.086;15.920;2023-03-01T07:24:26;49.97;;;22.77;;
17595;SDS011;8916;47.086;15.920;2023-03-01T07:26:57;49.20;;;21.15;;
17595;SDS011;8916;47.086;15.920;2023-03-01T07:29:26;48.72;;;21.60;;
17595;SDS011;8916;47.086;15.920;2023-03-01T07:31:56;44.75;;;21.83;;
17595;SDS011;8916;47.086;15.920;2023-03-01T07:34:25;41.38;;;20.35;;
17595;SDS011;8916;47.086;15.920;2023-03-01T07:36:54;40.55;;;19.90;;
17595;SDS011;8916;47.086;15.920;2023-03-01T07:39:24;39.42;;;20.60;;
17595;SDS011;8916;47.086;15.920;2023-03-01T07:41:53;38.60;;;19.70;;
17595;SDS011;8916;47.086;15.920;2023-03-01T07:44:24;46.05;;;20.95;;
17595;SDS011;8916;47.086;15.920;2023-03-01T07:46:53;40.78;;;21.25;;
17595;SDS011;8916;47.086;15.920;2023-03-01T07:49:23;45.30;;;21.98;;
17595;SDS011;8916;47.086;15.920;2023-03-01T07:51:53;39.22;;;19.92;;
17595;SDS011;8916;47.086;15.920;2023-03-01T07:54:23;39.95;;;20.20;;
17595;SDS011;8916;47.086;15.920;2023-03-01T07:56:53;42.83;;;20.73;;
17595;SDS011;8916;47.086;15.920;2023-03-01T07:59:24;42.80;;;20.08;;
17595;SDS011;8916;47.086;15.920;2023-03-01T08:01:56;46.75;;;20.42;;
17595;SDS011;8916;47.086;15.920;2023-03-01T08:04:25;44.33;;;21.13;;
17595;SDS011;8916;47.086;15.920;2023-03-01T08:06:55;42.83;;;19.75;;
17595;SDS011;8916;47.086;15.920;2023-03-01T08:09:24;49.28;;;20.65;;
17595;SDS011;8916;47.086;15.920;2023-03-01T08:11:53;46.88;;;21.58;;
17595;SDS011;8916;47.086;15.920;2023-03-01T08:14:26;39.38;;;20.13;;
17595;SDS011;8916;47.086;15.920;2023-03-01T08:16:55;38.03;;;19.45;;
17595;SDS011;8916;47.086;15.920;2023-03-01T08:19:24;44.63;;;20.42;;
17595;SDS011;8916;47.086;15.920;2023-03-01T08:21:55;38.35;;;20.48;;
17595;SDS011;8916;47.086;15.920;2023-03-01T08:24:25;43.15;;;20.65;;
17595;SDS011;8916;47.086;15.920;2023-03-01T08:26:54;42.60;;;20.45;;
17595;SDS011;8916;47.086;15.920;2023-03-01T08:29:25;42.13;;;20.52;;
17595;SDS011;8916;47.086;15.920;2023-03-01T08:31:54;39.20;;;19.75;;
17595;SDS011;8916;47.086;15.920;2023-03-01T08:34:23;45.25;;;20.83;;
17595;SDS011;8916;47.086;15.920;2023-03-01T08:36:53;38.97;;;19.38;;
17595;SDS011;8916;47.086;15.920;2023-03-01T08:39:22;45.28;;;19.80;;
17595;SDS011;8916;47.086;15.920;2023-03-01T08:41:51;37.65;;;18.67;;
17595;SDS011;8916;47.086;15.920;2023-03-01T08:44:20;42.47;;;18.42;;
17595;SDS011;8916;47.086;15.920;2023-03-01T08:46:50;35.65;;;18.33;;
17595;SDS011;8916;47.086;15.920;2023-03-01T08:49:21;38.42;;;18.45;;
17595;SDS011;8916;47.086;15.920;2023-03-01T08:51:53;33.28;;;17.63;;
17595;SDS011;8916;47.086;15.920;2023-03-01T08:54:22;32.85;;;16.88;;
17595;SDS011;8916;47.086;15.920;2023-03-01T08:56:51;35.08;;;17.77;;
17595;SDS011;8916;47.086;15.920;2023-03-01T08:59:20;35.65;;;17.10;;
17595;SDS011;8916;47.086;15.920;2023-03-01T09:01:51;33.80;;;16.80;;
17595;SDS011;8916;47.086;15.920;2023-03-01T09:04:20;30.33;;;16.30;;
17595;SDS011;8916;47.086;15.920;2023-03-01T09:06:49;53.58;;;17.63;;
17595;SDS011;8916;47.086;15.920;2023-03-01T09:09:18;33.25;;;16.95;;
17595;SDS011;8916;47.086;15.920;2023-03-01T09:11:47;34.15;;;17.63;;
17595;SDS011;8916;47.086;15.920;2023-03-01T09:14:17;29.17;;;15.82;;
17595;SDS011;8916;47.086;15.920;2023-03-01T09:16:46;35.38;;;16.27;;
17595;SDS011;8916;47.086;15.920;2023-03-01T09:19:17;32.33;;;15.65;;
17595;SDS011;8916;47.086;15.920;2023-03-01T09:21:46;32.25;;;16.13;;
17595;SDS011;8916;47.086;15.920;2023-03-01T09:24:20;27.40;;;15.55;;
17595;SDS011;8916;47.086;15.920;2023-03-01T09:26:53;33.33;;;17.35;;
17595;SDS011;8916;47.086;15.920;2023-03-01T09:29:23;32.45;;;15.90;;
17595;SDS011;8916;47.086;15.920;2023-03-01T09:31:53;29.30;;;15.70;;
17595;SDS011;8916;47.086;15.920;2023-03-01T09:34:24;34.10;;;17.17;;
17595;SDS011;8916;47.086;15.920;2023-03-01T09:36:54;29.38;;;15.52;;
17595;SDS011;8916;47.086;15.920;2023-03-01T09:39:23;40.17;;;16.98;;
17595;SDS011;8916;47.086;15.920;2023-03-01T09:41:54;35.95;;;16.65;;
17595;SDS011;8916;47.086;15.920;2023-03-01T09:44:33;31.60;;;17.13;;
17595;SDS011;8916;47.086;15.920;2023-03-01T09:47:09;31.98;;;16.02;;
17595;SDS011;8916;47.086;15.920;2023-03-01T09:49:48;31.10;;;15.43;;
17595;SDS011;8916;47.086;15.920;2023-03-01T09:52:33;29.83;;;15.13;;
17595;SDS011;8916;47.086;15.920;2023-03-01T09:55:08;28.25;;;15.13;;
17595;SDS011;8916;47.086;15.920;2023-03-01T09:57:46;33.78;;;16.17;;
17595;SDS011;8916;47.086;15.920;2023-03-01T10:00:24;32.00;;;15.60;;
17595;SDS011;8916;47.086;15.920;2023-03-01T10:03:11;31.40;;;16.40;;
17595;SDS011;8916;47.086;15.920;2023-03-01T10:05:50;34.45;;;15.82;;
17595;SDS011;8916;47.086;15.920;2023-03-01T10:08:29;38.75;;;17.20;;
17595;SDS011;8916;47.086;15.920;2023-03-01T10:11:14;34.25;;;17.15;;
17595;SDS011;8916;47.086;15.920;2023-03-01T10:13:54;30.30;;;16.42;;
17595;SDS011;8916;47.086;15.920;2023-03-01T10:16:33;31.58;;;16.40;;
17595;SDS011;8916;47.086;15.920;2023-03-01T10:19:16;40.97;;;18.48;;
17595;SDS011;8916;47.086;15.920;2023-03-01T10:21:54;35.67;;;16.50;;
17595;SDS011;8916;47.086;15.920;2023-03-01T10:24:31;34.55;;;16.30;;
17595;SDS011;8916;47.086;15.920;2023-03-01T10:27:04;31.02;;;15.68;;
17595;SDS011;8916;47.086;15.920;2023-03-01T10:29:38;31.15;;;16.10;;
17595;SDS011;8916;47.086;15.920;2023-03-01T10:32:16;32.80;;;16.70;;
17595;SDS011;8916;47.086;15.920;2023-03-01T10:34:46;30.13;;;15.75;;
17595;SDS011;8916;47.086;15.920;2023-03-01T10:37:18;33.03;;;17.80;;
17595;SDS011;8916;47.086;15.920;2023-03-01T10:39:55;32.45;;;16.42;;
17595;SDS011;8916;47.086;15.920;2023-03-01T10:42:34;32.20;;;16.92;;
17595;SDS011;8916;47.086;15.920;2023-03-01T10:45:17;35.90;;;16.23;;
17595;SDS011;8916;47.086;15.920;2023-03-01T10:48:03;32.85;;;16.75;;
17595;SDS011;8916;47.086;15.920;2023-03-01T10:50:36;31.25;;;15.90;;
17595;SDS011;8916;47.086;15.920;2023-03-01T10:53:20;34.78;;;16.98;;
17595;SDS011;8916;47.086;15.920;2023-03-01T10:55:57;35.45;;;15.40;;
17595;SDS011;8916;47.086;15.920;2023-03-01T10:58:30;32.83;;;16.45;;
17595;SDS011;8916;47.086;15.920;2023-03-01T11:01:01;34.13;;;16.38;;
17595;SDS011;8916;47.086;15.920;2023-03-01T11:03:33;34.25;;;16.70;;
17595;SDS011;8916;47.086;15.920;2023-03-01T11:06:05;30.17;;;14.90;;
17595;SDS011;8916;47.086;15.920;2023-03-01T11:08:50;29.02;;;14.57;;
17595;SDS011;8916;47.086;15.920;2023-03-01T11:11:22;35.80;;;15.57;;
17595;SDS011;8916;47.086;15.920;2023-03-01T11:13:59;33.28;;;15.25;;
17595;SDS011;8916;47.086;15.920;2023-03-01T11:16:58;34.13;;;15.48;;
17595;SDS011;8916;47.086;15.920;2023-03-01T11:19:30;32.10;;;15.80;;
17595;SDS011;8916;47.086;15.920;2023-03-01T11:22:02;32.28;;;15.82;;
17595;SDS011;8916;47.086;15.920;2023-03-01T11:24:37;28.60;;;15.25;;
17595;SDS011;8916;47.086;15.920;2023-03-01T11:27:17;27.48;;;15.18;;
17595;SDS011;8916;47.086;15.920;2023-03-01T11:29:51;29.42;;;16.17;;
17595;SDS011;8916;47.086;15.920;2023-03-01T11:32:26;33.17;;;15.68;;
17595;SDS011;8916;47.086;15.920;2023-03-01T11:37:38;27.70;;;13.93;;
17595;SDS011;8916;47.086;15.920;2023-03-01T11:40:15;30.10;;;15.43;;
17595;SDS011;8916;47.086;15.920;2023-03-01T11:42:56;28.50;;;13.80;;
17595;SDS011;8916;47.086;15.920;2023-03-01T11:45:41;27.23;;;14.63;;
17595;SDS011;8916;47.086;15.920;2023-03-01T11:48:34;28.42;;;15.25;;
17595;SDS011;8916;47.086;15.920;2023-03-01T11:51:20;24.92;;;14.75;;
17595;SDS011;8916;47.086;15.920;2023-03-01T11:54:06;33.67;;;14.02;;
17595;SDS011;8916;47.086;15.920;2023-03-01T11:56:48;31.20;;;15.50;;
17595;SDS011;8916;47.086;15.920;2023-03-01T11:59:37;29.23;;;14.40;;
17595;SDS011;8916;47.086;15.920;2023-03-01T12:02:32;28.05;;;14.80;;
17595;SDS011;8916;47.086;15.920;2023-03-01T12:05:25;30.42;;;15.30;;
17595;SDS011;8916;47.086;15.920;2023-03-01T12:08:27;33.42;;;14.80;;
17595;SDS011;8916;47.086;15.920;2023-03-01T12:11:08;29.85;;;14.23;;
17595;SDS011;8916;47.086;15.920;2023-03-01T12:16:48;27.55;;;14.05;;
17595;SDS011;8916;47.086;15.920;2023-03-01T12:19:44;28.30;;;14.27;;
17595;SDS011;8916;47.086;15.920;2023-03-01T12:22:39;29.42;;;15.02;;
17595;SDS011;8916;47.086;15.920;2023-03-01T12:25:45;30.48;;;15.25;;
17595;SDS011;8916;47.086;15.920;2023-03-01T12:28:34;30.45;;;15.07;;
17595;SDS011;8916;47.086;15.920;2023-03-01T12:31:35;25.50;;;14.02;;
17595;SDS011;8916;47.086;15.920;2023-03-01T12:37:59;30.50;;;15.18;;
17595;SDS011;8916;47.086;15.920;2023-03-01T12:40:45;27.55;;;15.13;;
17595;SDS011;8916;47.086;15.920;2023-03-01T12:43:34;30.90;;;15.80;;
17595;SDS011;8916;47.086;15.920;2023-03-01T12:46:20;29.48;;;14.63;;
17595;SDS011;8916;47.086;15.920;2023-03-01T12:49:04;30.63;;;15.93;;
17595;SDS011;8916;47.086;15.920;2023-03-01T12:51:42;30.55;;;14.10;;
17595;SDS011;8916;47.086;15.920;2023-03-01T12:54:20;31.45;;;15.15;;
17595;SDS011;8916;47.086;15.920;2023-03-01T12:56:56;31.65;;;14.35;;
17595;SDS011;8916;47.086;15.920;2023-03-01T12:59:34;32.15;;;15.95;;
17595;SDS011;8916;47.086;15.920;2023-03-01T13:02:12;33.13;;;15.68;;
17595;SDS011;8916;47.086;15.920;2023-03-01T13:04:56;31.42;;;15.43;;
17595;SDS011;8916;47.086;15.920;2023-03-01T13:07:44;29.88;;;15.10;;
17595;SDS011;8916;47.086;15.920;2023-03-01T13:10:24;27.58;;;14.40;;
17595;SDS011;8916;47.086;15.920;2023-03-01T13:13:12;28.55;;;14.45;;
17595;SDS011;8916;47.086;15.920;2023-03-01T13:15:47;26.23;;;13.18;;
17595;SDS011;8916;47.086;15.920;2023-03-01T13:18:31;32.17;;;14.55;;
17595;SDS011;8916;47.086;15.920;2023-03-01T13:21:03;27.02;;;14.77;;
17595;SDS011;8916;47.086;15.920;2023-03-01T13:23:34;28.15;;;13.57;;
17595;SDS011;8916;47.086;15.920;2023-03-01T13:26:10;30.40;;;14.48;;
17595;SDS011;8916;47.086;15.920;2023-03-01T13:28:47;25.80;;;14.50;;
17595;SDS011;8916;47.086;15.920;2023-03-01T13:37:26;28.83;;;13.45;;
17595;SDS011;8916;47.086;15.920;2023-03-01T13:40:00;24.92;;;14.60;;
17595;SDS011;8916;47.086;15.920;2023-03-01T13:42:38;29.10;;;14.50;;
17595;SDS011;8916;47.086;15.920;2023-03-01T13:45:33;30.23;;;14.40;;
17595;SDS011;8916;47.086;15.920;2023-03-01T13:48:10;24.92;;;13.48;;
17595;SDS011;8916;47.086;15.920;2023-03-01T13:50:50;30.90;;;13.98;;
17595;SDS011;8916;47.086;15.920;2023-03-01T13:53:27;26.60;;;13.48;;
17595;SDS011;8916;47.086;15.920;2023-03-01T13:56:00;36.20;;;15.02;;
17595;SDS011;8916;47.086;15.920;2023-03-01T13:58:44;32.22;;;14.77;;
17595;SDS011;8916;47.086;15.920;2023-03-01T14:01:22;27.70;;;13.52;;
17595;SDS011;8916;47.086;15.920;2023-03-01T14:03:54;24.38;;;13.68;;
17595;SDS011;8916;47.086;15.920;2023-03-01T14:06:27;26.08;;;13.65;;
17595;SDS011;8916;47.086;15.920;2023-03-01T14:09:04;30.40;;;14.18;;
17595;SDS011;8916;47.086;15.920;2023-03-01T14:12:02;27.92;;;13.23;;
17595;SDS011;8916;47.086;15.920;2023-03-01T14:14:49;28.92;;;14.68;;
17595;SDS011;8916;47.086;15.920;2023-03-01T14:17:31;26.35;;;14.30;;
17595;SDS011;8916;47.086;15.920;2023-03-01T14:20:21;32.45;;;13.07;;
17595;SDS011;8916;47.086;15.920;2023-03-01T14:22:53;27.02;;;13.13;;
17595;SDS011;8916;47.086;15.920;2023-03-01T14:25:27;26.50;;;13.35;;
17595;SDS011;8916;47.086;15.920;2023-03-01T14:28:00;28.60;;;13.45;;
17595;SDS011;8916;47.086;15.920;2023-03-01T14:30:42;32.65;;;15.15;;
17595;SDS011;8916;47.086;15.920;2023-03-01T14:33:20;32.25;;;15.80;;
17595;SDS011;8916;47.086;15.920;2023-03-01T14:35:53;27.45;;;13.40;;
17595;SDS011;8916;47.086;15.920;2023-03-01T14:38:31;30.92;;;14.23;;
17595;SDS011;8916;47.086;15.920;2023-03-01T14:41:05;24.80;;;13.93;;
17595;SDS011;8916;47.086;15.920;2023-03-01T14:43:40;30.02;;;15.23;;
17595;SDS011;8916;47.086;15.920;2023-03-01T14:46:19;27.83;;;13.93;;
17595;SDS011;8916;47.086;15.920;2023-03-01T14:48:50;31.25;;;14.88;;
17595;SDS011;8916;47.086;15.920;2023-03-01T14:51:26;28.15;;;14.38;;
17595;SDS011;8916;47.086;15.920;2023-03-01T14:53:55;27.83;;;14.32;;
17595;SDS011;8916;47.086;15.920;2023-03-01T14:56:26;28.35;;;14.00;;
17595;SDS011;8916;47.086;15.920;2023-03-01T14:59:11;32.17;;;14.63;;
17595;SDS011;8916;47.086;15.920;2023-03-01T15:01:40;27.77;;;13.63;;
17595;SDS011;8916;47.086;15.920;2023-03-01T15:04:11;26.55;;;13.18;;
17595;SDS011;8916;47.086;15.920;2023-03-01T15:06:41;27.20;;;13.15;;
17595;SDS011;8916;47.086;15.920;2023-03-01T15:09:12;33.03;;;14.75;;
17595;SDS011;8916;47.086;15.920;2023-03-01T15:11:45;25.48;;;13.35;;
17595;SDS011;8916;47.086;15.920;2023-03-01T15:14:39;28.88;;;13.82;;